createdAt,value
2023-04-18T00:00:36.832Z,10.47
2023-04-18T00:03:05.460Z,10.45
2023-04-18T00:05:32.462Z,10.43
2023-04-18T00:07:59.318Z,10.39
2023-04-18T00:10:26.337Z,10.34
2023-04-18T00:12:54.342Z,10.32
2023-04-18T00:15:21.049Z,10.25
2023-04-18T00:17:49.327Z,10.20
2023-04-18T00:20:16.104Z,10.17
2023-04-18T00:22:47.474Z,10.12
2023-04-18T00:25:15.987Z,10.08
2023-04-18T00:27:43.349Z,10.08
2023-04-18T00:30:11.064Z,10.06
2023-04-18T00:32:38.086Z,10.02
2023-04-18T00:35:07.216Z,9.95
2023-04-18T00:37:35.662Z,9.93
2023-04-18T00:40:02.521Z,9.90
2023-04-18T00:42:29.483Z,9.86
2023-04-18T00:44:56.823Z,9.79
2023-04-18T00:47:27.327Z,9.76
2023-04-18T00:49:55.310Z,9.69
2023-04-18T00:52:27.317Z,9.66
2023-04-18T00:54:54.724Z,9.66
2023-04-18T00:57:22.361Z,9.61
2023-04-18T00:59:52.019Z,9.59
2023-04-18T01:02:19.381Z,9.55
2023-04-18T01:04:46.646Z,9.50
2023-04-18T01:07:15.163Z,9.45
2023-04-18T01:09:44.090Z,9.41
2023-04-18T01:12:12.151Z,9.40
2023-04-18T01:14:42.115Z,9.38
2023-04-18T01:17:12.869Z,9.32
2023-04-18T01:19:39.839Z,9.26
2023-04-18T01:22:09.197Z,9.23
2023-04-18T01:24:37.403Z,9.23
2023-04-18T01:27:04.507Z,9.22
2023-04-18T01:29:31.440Z,9.19
2023-04-18T01:32:02.727Z,9.13
2023-04-18T01:34:29.537Z,9.10
2023-04-18T01:36:56.558Z,9.07
2023-04-18T01:39:23.604Z,8.99
2023-04-18T01:41:51.896Z,8.96
2023-04-18T01:44:18.626Z,8.94
2023-04-18T01:46:45.537Z,8.93
2023-04-18T01:49:12.398Z,8.84
2023-04-18T01:51:39.520Z,8.81
2023-04-18T01:54:06.730Z,8.79
2023-04-18T01:56:33.616Z,8.78
2023-04-18T01:59:01.891Z,8.78
2023-04-18T02:01:28.777Z,8.74
2023-04-18T02:03:56.026Z,8.71
2023-04-18T02:06:27.516Z,8.70
2023-04-18T02:08:54.321Z,8.67
2023-04-18T02:11:22.476Z,8.68
2023-04-18T02:13:50.528Z,8.64
2023-04-18T02:16:18.908Z,8.62
2023-04-18T02:18:45.926Z,8.58
2023-04-18T02:21:12.883Z,8.50
2023-04-18T02:23:39.817Z,8.52
2023-04-18T02:26:07.070Z,8.49
2023-04-18T02:28:33.950Z,8.46
2023-04-18T02:31:01.210Z,8.42
2023-04-18T02:33:29.447Z,8.39
2023-04-18T02:35:56.373Z,8.37
2023-04-18T02:38:23.401Z,8.35
2023-04-18T02:40:51.491Z,8.33
2023-04-18T02:43:18.218Z,8.25
2023-04-18T02:45:45.304Z,8.22
2023-04-18T02:48:12.302Z,8.24
2023-04-18T02:50:41.009Z,8.20
2023-04-18T02:53:07.842Z,8.17
2023-04-18T02:55:34.713Z,8.13
2023-04-18T02:58:02.394Z,8.11
2023-04-18T03:00:29.620Z,8.07
2023-04-18T03:02:56.693Z,8.07
2023-04-18T03:05:23.832Z,8.02
2023-04-18T03:07:51.998Z,7.99
2023-04-18T03:10:19.175Z,8.00
2023-04-18T03:12:47.747Z,7.94
2023-04-18T03:15:14.468Z,7.96
2023-04-18T03:17:42.620Z,7.95
2023-04-18T03:20:11.376Z,7.95
2023-04-18T03:22:38.287Z,7.91
2023-04-18T03:25:08.287Z,7.93
2023-04-18T03:27:35.269Z,7.92
2023-04-18T03:30:02.420Z,7.94
2023-04-18T03:32:33.816Z,7.95
2023-04-18T03:35:01.054Z,7.91
2023-04-18T03:37:28.185Z,7.88
2023-04-18T03:39:54.995Z,7.84
2023-04-18T03:42:23.242Z,7.85
2023-04-18T03:44:50.068Z,7.83
2023-04-18T03:47:18.387Z,7.83
2023-04-18T03:49:45.351Z,7.83
2023-04-18T03:52:12.090Z,7.84
2023-04-18T03:54:38.836Z,7.85
2023-04-18T03:57:05.792Z,7.85
2023-04-18T03:59:34.357Z,7.81
2023-04-18T04:02:01.683Z,7.76
2023-04-18T04:04:31.199Z,7.80
2023-04-18T04:06:58.173Z,7.85
2023-04-18T04:09:24.974Z,7.86
2023-04-18T04:11:52.086Z,7.88
2023-04-18T04:14:18.759Z,7.88
2023-04-18T04:16:47.100Z,7.86
2023-04-18T04:19:15.208Z,7.87
2023-04-18T04:21:42.174Z,7.86
2023-04-18T04:24:09.585Z,7.89
2023-04-18T04:26:36.491Z,7.92
2023-04-18T04:29:06.169Z,7.94
2023-04-18T04:31:33.111Z,7.91
2023-04-18T04:34:02.144Z,7.93
2023-04-18T04:36:29.228Z,7.90
2023-04-18T04:38:55.973Z,7.92
2023-04-18T04:41:25.521Z,7.93
2023-04-18T04:43:56.327Z,7.94
2023-04-18T04:46:23.984Z,7.96
2023-04-18T04:48:54.446Z,8.01
2023-04-18T04:51:25.908Z,8.03
2023-04-18T04:53:52.736Z,8.04
2023-04-18T04:56:19.794Z,8.06
2023-04-18T04:58:47.774Z,8.08
2023-04-18T05:01:14.978Z,8.09
2023-04-18T05:03:42.239Z,8.11
2023-04-18T05:06:09.728Z,8.10
2023-04-18T05:08:39.831Z,8.10
2023-04-18T05:11:06.672Z,8.09
2023-04-18T05:13:33.431Z,8.05
2023-04-18T05:16:00.257Z,8.07
2023-04-18T05:18:27.096Z,8.10
2023-04-18T05:20:54.264Z,8.08
2023-04-18T05:23:22.817Z,8.11
2023-04-18T05:25:51.509Z,8.11
2023-04-18T05:28:18.262Z,8.11
2023-04-18T05:30:45.313Z,8.12
2023-04-18T05:33:14.597Z,8.11
2023-04-18T05:35:41.346Z,8.10
2023-04-18T05:38:09.521Z,8.13
2023-04-18T05:40:36.318Z,8.18
2023-04-18T05:43:07.575Z,8.23
2023-04-18T05:45:34.479Z,8.23
2023-04-18T05:48:01.283Z,8.30
2023-04-18T05:50:28.293Z,8.29
2023-04-18T05:52:55.023Z,8.33
2023-04-18T05:55:21.794Z,8.39
2023-04-18T05:57:48.548Z,8.42
2023-04-18T06:00:17.708Z,8.48
2023-04-18T06:02:44.607Z,8.52
2023-04-18T06:05:13.299Z,8.54
2023-04-18T06:07:40.635Z,8.57
2023-04-18T06:10:11.174Z,8.60
2023-04-18T06:12:39.458Z,8.64
2023-04-18T06:15:07.598Z,8.68
2023-04-18T06:17:36.645Z,8.73
2023-04-18T06:20:07.967Z,8.77
2023-04-18T06:22:34.825Z,8.80
2023-04-18T06:25:01.695Z,8.88
2023-04-18T06:27:31.456Z,8.94
2023-04-18T06:29:59.218Z,9.00
2023-04-18T06:32:26.173Z,9.04
2023-04-18T06:34:54.473Z,9.09
2023-04-18T06:37:21.697Z,9.16
2023-04-18T06:39:48.407Z,9.21
2023-04-18T06:42:15.216Z,9.19
2023-04-18T06:44:43.221Z,9.22
2023-04-18T06:47:10.820Z,9.24
2023-04-18T06:49:37.688Z,9.26
2023-04-18T06:52:06.100Z,9.28
2023-04-18T06:54:32.995Z,9.31
2023-04-18T06:57:03.607Z,9.36
2023-04-18T06:59:30.793Z,9.38
2023-04-18T07:01:57.642Z,9.40
2023-04-18T07:04:24.778Z,9.46
2023-04-18T07:06:51.981Z,9.51
2023-04-18T07:09:24.945Z,9.57
2023-04-18T07:11:52.702Z,9.64
2023-04-18T07:14:21.964Z,9.70
2023-04-18T07:16:49.907Z,9.74
2023-04-18T07:19:16.755Z,9.81
2023-04-18T07:21:43.887Z,9.82
2023-04-18T07:24:13.359Z,9.87
2023-04-18T07:26:41.859Z,9.88
2023-04-18T07:29:14.015Z,9.88
2023-04-18T07:31:41.209Z,9.89
2023-04-18T07:34:09.207Z,9.92
2023-04-18T07:36:36.850Z,9.94
2023-04-18T07:39:03.807Z,9.96
2023-04-18T07:41:32.197Z,9.97
2023-04-18T07:44:00.830Z,9.98
2023-04-18T07:46:28.118Z,9.99
2023-04-18T07:48:55.193Z,10.03
2023-04-18T07:51:23.339Z,10.06
2023-04-18T07:53:50.255Z,10.09
2023-04-18T07:56:17.434Z,10.11
2023-04-18T07:58:45.643Z,10.13
2023-04-18T08:01:18.398Z,10.16
2023-04-18T08:03:46.950Z,10.19
2023-04-18T08:06:14.287Z,10.19
2023-04-18T08:08:41.200Z,10.20
2023-04-18T08:11:08.039Z,10.22
2023-04-18T08:13:34.892Z,10.23
2023-04-18T08:16:03.293Z,10.26
2023-04-18T08:18:31.604Z,10.25
2023-04-18T08:20:58.360Z,10.25
2023-04-18T08:23:25.923Z,10.25
2023-04-18T08:25:53.115Z,10.29
2023-04-18T08:28:20.122Z,10.35
2023-04-18T08:30:49.197Z,10.39
2023-04-18T08:33:16.238Z,10.43
2023-04-18T08:35:44.505Z,10.46
2023-04-18T08:38:11.315Z,10.48
2023-04-18T08:40:49.434Z,10.54
2023-04-18T08:43:16.748Z,10.57
2023-04-18T08:45:44.837Z,10.60
2023-04-18T08:48:13.246Z,10.62
2023-04-18T08:50:40.798Z,10.65
2023-04-18T08:53:11.079Z,10.72
2023-04-18T08:55:42.210Z,10.79
2023-04-18T08:58:12.563Z,10.85
2023-04-18T09:00:39.430Z,10.87
2023-04-18T09:03:07.463Z,10.92
2023-04-18T09:05:35.759Z,10.96
2023-04-18T09:08:24.420Z,10.96
2023-04-18T09:10:51.763Z,11.01
2023-04-18T09:13:38.808Z,11.05
2023-04-18T09:16:06.487Z,11.11
2023-04-18T09:18:34.731Z,11.12
2023-04-18T09:21:18.674Z,11.17
2023-04-18T09:23:50.863Z,11.19
2023-04-18T09:26:35.744Z,11.23
2023-04-18T09:29:03.320Z,11.24
2023-04-18T09:31:30.390Z,11.29
2023-04-18T09:33:58.479Z,11.34
2023-04-18T09:36:31.265Z,11.38
2023-04-18T09:39:02.194Z,11.41
2023-04-18T09:41:30.578Z,11.41
2023-04-18T09:44:13.200Z,11.44
2023-04-18T09:46:46.589Z,11.49
2023-04-18T09:49:18.367Z,11.55
2023-04-18T09:51:46.146Z,11.58
2023-04-18T09:54:16.828Z,11.60
2023-04-18T09:56:45.253Z,11.61
2023-04-18T09:59:15.317Z,11.64
2023-04-18T10:01:47.348Z,11.68
2023-04-18T10:04:16.965Z,11.75
2023-04-18T10:06:46.565Z,11.79
2023-04-18T10:09:17.068Z,11.86
2023-04-18T10:11:47.217Z,11.92
2023-04-18T10:14:16.270Z,11.96
2023-04-18T10:16:45.805Z,12.01
2023-04-18T10:19:24.934Z,12.09
2023-04-18T10:21:53.280Z,12.16
2023-04-18T10:24:50.578Z,12.20
2023-04-18T10:27:18.623Z,12.23
2023-04-18T10:29:51.247Z,12.24
2023-04-18T10:32:19.573Z,12.26
2023-04-18T10:34:49.327Z,12.26
2023-04-18T10:37:18.034Z,12.26
2023-04-18T10:39:57.507Z,12.27
2023-04-18T10:42:57.653Z,12.27
2023-04-18T10:45:26.171Z,12.25
2023-04-18T10:48:30.182Z,12.21
2023-04-18T10:51:17.164Z,12.20
2023-04-18T10:53:51.070Z,12.20
2023-04-18T10:56:20.500Z,12.22
2023-04-18T10:58:51.250Z,12.29
2023-04-18T11:01:27.064Z,12.36
2023-04-18T11:03:56.693Z,12.41
2023-04-18T11:06:27.858Z,12.43
2023-04-18T11:09:09.308Z,12.49
2023-04-18T11:11:36.051Z,12.57
2023-04-18T11:14:02.818Z,12.66
2023-04-18T11:16:39.917Z,12.77
2023-04-18T11:19:20.370Z,12.87
2023-04-18T11:21:47.291Z,12.87
2023-04-18T11:24:21.787Z,12.88
2023-04-18T11:26:48.756Z,12.85
2023-04-18T11:29:17.494Z,12.86
2023-04-18T11:31:50.383Z,12.86
2023-04-18T11:34:19.986Z,12.93
2023-04-18T11:36:50.389Z,12.99
2023-04-18T11:39:17.265Z,13.03
2023-04-18T11:41:50.272Z,13.10
2023-04-18T11:44:17.734Z,13.14
2023-04-18T11:46:47.720Z,13.14
2023-04-18T11:49:33.922Z,13.12
2023-04-18T11:52:01.583Z,13.11
2023-04-18T11:54:39.715Z,13.11
2023-04-18T11:57:07.462Z,13.13
2023-04-18T11:59:34.343Z,13.13
2023-04-18T12:02:15.443Z,13.18
2023-04-18T12:04:56.223Z,13.16
2023-04-18T12:07:35.118Z,13.15
2023-04-18T12:10:02.553Z,13.19
2023-04-18T12:12:29.346Z,13.24
2023-04-18T12:15:00.574Z,13.25
2023-04-18T12:17:27.750Z,13.28
2023-04-18T12:19:55.862Z,13.31
2023-04-18T12:22:38.577Z,13.31
2023-04-18T12:25:20.445Z,13.30
2023-04-18T12:27:53.604Z,13.30
2023-04-18T12:30:22.142Z,13.32
2023-04-18T12:32:50.791Z,13.38
2023-04-18T12:35:20.866Z,13.42
2023-04-18T12:37:48.181Z,13.49
2023-04-18T12:40:16.061Z,13.56
2023-04-18T12:42:42.967Z,13.66
2023-04-18T12:45:10.754Z,13.78
2023-04-18T12:47:38.689Z,13.86
2023-04-18T12:50:07.295Z,13.90
2023-04-18T12:52:38.544Z,13.93
2023-04-18T12:55:07.083Z,13.98
2023-04-18T12:57:36.220Z,13.98
2023-04-18T13:00:06.406Z,14.02
2023-04-18T13:02:35.470Z,14.03
2023-04-18T13:05:02.570Z,14.04
2023-04-18T13:07:29.776Z,14.04
2023-04-18T13:09:57.887Z,14.06
2023-04-18T13:12:24.684Z,14.02
2023-04-18T13:14:51.469Z,14.05
2023-04-18T13:17:18.349Z,14.08
2023-04-18T13:19:46.742Z,14.13
2023-04-18T13:22:13.485Z,14.10
2023-04-18T13:24:40.419Z,14.10
2023-04-18T13:27:10.577Z,14.10
2023-04-18T13:29:39.142Z,14.11
2023-04-18T13:32:06.495Z,14.13
2023-04-18T13:34:34.858Z,14.15
2023-04-18T13:37:01.656Z,14.18
2023-04-18T13:39:29.166Z,14.22
2023-04-18T13:41:56.567Z,14.24
2023-04-18T13:44:27.708Z,14.25
2023-04-18T13:46:57.036Z,14.24
2023-04-18T13:49:23.823Z,14.25
2023-04-18T13:51:53.475Z,14.27
2023-04-18T13:54:20.347Z,14.32
2023-04-18T13:56:47.100Z,14.35
2023-04-18T13:59:14.324Z,14.38
2023-04-18T14:01:42.897Z,14.40
2023-04-18T14:04:10.059Z,14.44
2023-04-18T14:06:38.214Z,14.48
2023-04-18T14:09:05.045Z,14.49
2023-04-18T14:11:31.832Z,14.55
2023-04-18T14:13:58.568Z,14.56
2023-04-18T14:16:25.678Z,14.57
2023-04-18T14:18:54.240Z,14.60
2023-04-18T14:21:21.258Z,14.65
2023-04-18T14:23:48.205Z,14.74
2023-04-18T14:26:14.963Z,14.78
2023-04-18T14:28:41.821Z,14.81
2023-04-18T14:31:08.695Z,14.78
2023-04-18T14:33:35.796Z,14.76
2023-04-18T14:36:09.342Z,14.77
2023-04-18T14:38:36.596Z,14.74
2023-04-18T14:41:04.384Z,14.75
2023-04-18T14:43:31.221Z,14.73
2023-04-18T14:45:59.547Z,14.71
2023-04-18T14:48:27.147Z,14.76
2023-04-18T14:50:57.286Z,14.79
2023-04-18T14:53:27.455Z,14.78
2023-04-18T14:55:54.325Z,14.79
2023-04-18T14:58:21.209Z,14.81
2023-04-18T15:00:49.233Z,14.79
2023-04-18T15:03:16.892Z,14.78
2023-04-18T15:05:46.657Z,14.80
2023-04-18T15:08:14.638Z,14.83
2023-04-18T15:10:44.593Z,14.88
2023-04-18T15:13:11.646Z,14.93
2023-04-18T15:15:39.771Z,14.95
2023-04-18T15:18:07.759Z,14.95
2023-04-18T15:20:36.179Z,14.98
2023-04-18T15:23:04.203Z,15.01
2023-04-18T15:25:31.121Z,15.02
2023-04-18T15:27:59.325Z,14.99
2023-04-18T15:30:26.457Z,14.99
2023-04-18T15:32:54.735Z,15.01
2023-04-18T15:35:21.949Z,15.06
2023-04-18T15:37:49.354Z,15.13
2023-04-18T15:40:18.232Z,15.19
2023-04-18T15:42:49.644Z,15.22
2023-04-18T15:45:20.126Z,15.24
2023-04-18T15:47:47.066Z,15.25
2023-04-18T15:50:17.050Z,15.24
2023-04-18T15:52:46.354Z,15.22
2023-04-18T15:55:13.729Z,15.27
2023-04-18T15:57:41.654Z,15.25
2023-04-18T16:00:15.901Z,15.22
2023-04-18T16:02:45.228Z,15.24
2023-04-18T16:05:13.098Z,15.25
2023-04-18T16:07:40.166Z,15.23
2023-04-18T16:10:10.168Z,15.21
2023-04-18T16:12:37.996Z,15.19
2023-04-18T16:15:06.687Z,15.16
2023-04-18T16:17:33.810Z,15.11
2023-04-18T16:20:02.391Z,15.10
2023-04-18T16:22:29.371Z,15.08
2023-04-18T16:24:56.240Z,15.07
2023-04-18T16:27:23.061Z,15.05
2023-04-18T16:29:50.254Z,15.04
2023-04-18T16:32:17.241Z,15.01
2023-04-18T16:34:44.273Z,15.01
2023-04-18T16:37:12.537Z,15.03
2023-04-18T16:39:39.280Z,15.04
2023-04-18T16:42:06.188Z,15.02
2023-04-18T16:44:33.379Z,15.00
2023-04-18T16:47:00.443Z,14.98
2023-04-18T16:49:27.375Z,14.95
2023-04-18T16:51:54.279Z,14.91
2023-04-18T16:54:22.587Z,14.90
2023-04-18T16:56:49.341Z,14.89
2023-04-18T16:59:16.302Z,14.93
2023-04-18T17:01:43.027Z,14.88
2023-04-18T17:04:09.794Z,14.80
2023-04-18T17:06:36.804Z,14.76
2023-04-18T17:09:06.405Z,14.72
2023-04-18T17:11:39.576Z,14.71
2023-04-18T17:14:07.687Z,14.70
2023-04-18T17:16:35.120Z,14.68
2023-04-18T17:19:02.002Z,14.64
2023-04-18T17:21:28.876Z,14.60
2023-04-18T17:23:56.419Z,14.57
2023-04-18T17:26:24.394Z,14.53
2023-04-18T17:28:52.663Z,14.49
2023-04-18T17:31:19.601Z,14.47
2023-04-18T17:33:46.315Z,14.42
2023-04-18T17:36:13.156Z,14.40
2023-04-18T17:38:40.674Z,14.38
2023-04-18T17:41:07.918Z,14.34
2023-04-18T17:43:34.655Z,14.32
2023-04-18T17:46:03.868Z,14.32
2023-04-18T17:48:30.844Z,14.28
2023-04-18T17:50:57.633Z,14.24
2023-04-18T17:53:25.693Z,14.21
2023-04-18T17:55:52.585Z,14.18
2023-04-18T17:58:19.921Z,14.15
2023-04-18T18:00:46.902Z,14.12
2023-04-18T18:03:15.389Z,14.12
2023-04-18T18:05:45.466Z,14.06
2023-04-18T18:08:12.306Z,14.02
2023-04-18T18:10:39.562Z,14.00
2023-04-18T18:16:54.183Z,13.89
2023-04-18T18:19:22.452Z,13.85
2023-04-18T18:21:49.213Z,13.81
2023-04-18T18:24:16.290Z,13.79
2023-04-18T18:26:43.133Z,13.76
2023-04-18T18:29:11.147Z,13.72
2023-04-18T18:31:38.669Z,13.69
2023-04-18T18:34:06.094Z,13.65
2023-04-18T18:36:34.310Z,13.62
2023-04-18T18:39:00.999Z,13.58
2023-04-18T18:41:27.819Z,13.55
2023-04-18T18:43:54.610Z,13.50
2023-04-18T18:46:21.467Z,13.46
2023-04-18T18:48:49.775Z,13.42
2023-04-18T18:51:18.501Z,13.36
2023-04-18T18:53:47.171Z,13.31
2023-04-18T18:56:14.617Z,13.26
2023-04-18T18:58:43.849Z,13.23
2023-04-18T19:01:11.616Z,13.20
2023-04-18T19:03:38.549Z,13.19
2023-04-18T19:06:07.268Z,13.15
2023-04-18T19:08:34.233Z,13.11
2023-04-18T19:11:02.396Z,13.06
2023-04-18T19:13:29.221Z,13.00
2023-04-18T19:15:56.034Z,12.97
2023-04-18T19:18:22.967Z,12.93
2023-04-18T19:20:50.581Z,12.92
2023-04-18T19:23:17.621Z,12.90
2023-04-18T19:25:44.968Z,12.88
2023-04-18T19:28:14.431Z,12.87
2023-04-18T19:30:42.417Z,12.85
2023-04-18T19:33:09.432Z,12.82
2023-04-18T19:35:37.921Z,12.79
2023-04-18T19:38:07.932Z,12.75
2023-04-18T19:40:34.687Z,12.70
2023-04-18T19:43:01.443Z,12.68
2023-04-18T19:45:30.473Z,12.65
2023-04-18T19:47:57.350Z,12.61
2023-04-18T19:50:24.498Z,12.55
2023-04-18T19:52:51.320Z,12.52
2023-04-18T19:55:18.010Z,12.50
2023-04-18T19:57:44.948Z,12.43
2023-04-18T20:00:13.074Z,12.40
2023-04-18T20:02:41.613Z,12.34
2023-04-18T20:05:09.754Z,12.32
2023-04-18T20:07:36.920Z,12.29
2023-04-18T20:10:04.530Z,12.26
2023-04-18T20:12:31.524Z,12.21
2023-04-18T20:14:59.015Z,12.20
2023-04-18T20:17:26.266Z,12.18
2023-04-18T20:19:57.130Z,12.15
2023-04-18T20:22:26.042Z,12.11
2023-04-18T20:24:53.084Z,12.09
2023-04-18T20:27:23.040Z,12.03
2023-04-18T20:29:50.021Z,11.98
2023-04-18T20:32:17.003Z,11.95
2023-04-18T20:34:43.670Z,11.92
2023-04-18T20:37:11.866Z,11.91
2023-04-18T20:39:39.903Z,11.89
2023-04-18T20:42:07.015Z,11.87
2023-04-18T20:44:35.163Z,11.85
2023-04-18T20:47:02.368Z,11.81
2023-04-18T20:49:29.675Z,11.79
2023-04-18T20:51:56.533Z,11.75
2023-04-18T20:54:26.280Z,11.71
2023-04-18T20:56:52.979Z,11.70
2023-04-18T20:59:19.725Z,11.67
2023-04-18T21:01:47.929Z,11.66
2023-04-18T21:04:15.181Z,11.64
2023-04-18T21:06:42.744Z,11.60
2023-04-18T21:09:09.544Z,11.57
2023-04-18T21:11:38.449Z,11.53
2023-04-18T21:14:06.742Z,11.51
2023-04-18T21:16:33.802Z,11.47
2023-04-18T21:19:00.585Z,11.45
2023-04-18T21:21:27.610Z,11.44
2023-04-18T21:23:54.259Z,11.42
2023-04-18T21:26:21.037Z,11.39
2023-04-18T21:28:59.796Z,11.36
2023-04-18T21:31:29.081Z,11.34
2023-04-18T21:33:57.323Z,11.31
2023-04-18T21:36:29.272Z,11.30
2023-04-18T21:38:57.100Z,11.27
2023-04-18T21:41:25.602Z,11.25
2023-04-18T21:43:54.135Z,11.25
2023-04-18T21:46:22.782Z,11.23
2023-04-18T21:48:49.675Z,11.22
2023-04-18T21:51:17.342Z,11.21
2023-04-18T21:53:44.202Z,11.19
2023-04-18T21:56:11.530Z,11.18
2023-04-18T21:58:38.585Z,11.19
2023-04-18T22:01:05.570Z,11.17
2023-04-18T22:03:34.316Z,11.16
2023-04-18T22:06:02.040Z,11.14
2023-04-18T22:08:29.611Z,11.10
2023-04-18T22:10:58.974Z,11.08
2023-04-18T22:13:30.128Z,11.08
2023-04-18T22:15:58.309Z,11.05
2023-04-18T22:18:25.339Z,11.02
2023-04-18T22:20:53.906Z,10.98
2023-04-18T22:23:20.687Z,10.97
2023-04-18T22:25:48.880Z,10.95
2023-04-18T22:28:16.238Z,10.94
2023-04-18T22:30:43.131Z,10.97
2023-04-18T22:33:11.559Z,10.97
2023-04-18T22:35:38.386Z,10.96
2023-04-18T22:38:06.876Z,10.94
2023-04-18T22:40:33.607Z,10.94
2023-04-18T22:43:00.475Z,10.94
2023-04-18T22:45:27.332Z,10.94
2023-04-18T22:47:54.756Z,10.96
2023-04-18T22:50:21.895Z,10.97
2023-04-18T22:52:48.642Z,10.98
2023-04-18T22:55:19.935Z,10.99
2023-04-18T22:57:46.870Z,11.03
2023-04-18T23:00:14.946Z,11.03
2023-04-18T23:02:41.937Z,11.04
2023-04-18T23:05:10.854Z,11.04
2023-04-18T23:07:37.755Z,11.04
2023-04-18T23:10:06.468Z,11.06
2023-04-18T23:12:34.656Z,11.06
2023-04-18T23:15:01.433Z,11.06
2023-04-18T23:17:28.223Z,11.07
2023-04-18T23:19:55.027Z,11.08
2023-04-18T23:22:24.542Z,11.08
2023-04-18T23:24:51.624Z,11.08
2023-04-18T23:27:18.899Z,11.07
2023-04-18T23:29:55.880Z,11.08
2023-04-18T23:32:23.310Z,11.10
2023-04-18T23:34:50.182Z,11.08
2023-04-18T23:37:17.189Z,11.11
2023-04-18T23:39:44.229Z,11.12
2023-04-18T23:42:11.048Z,11.13
2023-04-18T23:44:38.982Z,11.13
2023-04-18T23:47:07.335Z,11.14
2023-04-18T23:49:37.177Z,11.16
2023-04-18T23:52:04.436Z,11.16
2023-04-18T23:54:31.221Z,11.16
2023-04-18T23:56:58.244Z,11.18
2023-04-18T23:59:25.080Z,11.18
